Time;durP1;ratioP1;P1;durP2;ratioP2;P2;SDS_P1;SDS_P2;PMS_P1;PMS_P2;Temp;Humidity;BMP_temperature;BMP_pressure;BME280_temperature;BME280_humidity;BME280_pressure;Samples;Min_cycle;Max_cycle;Signal;HPM_P1;HPM_P2
2023/09/12 00:02:05;;;;;;;119.90;44.15;;;;;;;16.33;100.00;101451.88;5072885;28;20033;-76
2023/09/12 00:04:30;;;;;;;129.77;46.22;;;;;;;16.31;100.00;101452.03;5072553;28;20130;-76
2023/09/12 00:06:55;;;;;;;149.43;48.83;;;;;;;16.30;100.00;101450.38;5073059;28;20029;-76
2023/09/12 00:09:21;;;;;;;157.27;52.50;;;;;;;16.34;100.00;101454.41;5072531;28;20044;-76
2023/09/12 00:11:46;;;;;;;166.45;52.83;;;;;;;16.38;100.00;101444.19;5071169;28;20502;-76
2023/09/12 00:14:18;;;;;;;165.35;52.97;;;;;;;16.42;100.00;101439.31;5072488;28;20036;-76
2023/09/12 00:16:43;;;;;;;163.38;50.40;;;;;;;16.42;100.00;101437.50;5071918;28;21510;-76
2023/09/12 00:19:09;;;;;;;160.20;50.05;;;;;;;16.44;100.00;101442.72;5072945;28;20032;-76
2023/09/12 00:21:34;;;;;;;168.18;52.17;;;;;;;16.45;100.00;101445.22;5072338;28;20037;-76
2023/09/12 00:24:00;;;;;;;166.05;51.63;;;;;;;16.47;100.00;101445.06;5071370;28;20503;-76
2023/09/12 00:26:25;;;;;;;169.73;51.75;;;;;;;16.46;100.00;101446.91;5071516;28;20062;-75
2023/09/12 00:28:50;;;;;;;164.27;52.40;;;;;;;16.46;100.00;101451.44;5070965;28;20060;-75
2023/09/12 00:31:16;;;;;;;166.48;51.78;;;;;;;16.47;100.00;101447.75;5072534;28;20036;-76
2023/09/12 00:33:41;;;;;;;181.55;53.63;;;;;;;16.49;100.00;101446.56;5072396;28;20350;-75
2023/09/12 00:36:06;;;;;;;174.93;53.10;;;;;;;16.48;100.00;101438.66;5072619;28;20135;-75
2023/09/12 00:38:32;;;;;;;176.07;53.55;;;;;;;16.48;100.00;101434.16;5072107;28;20112;-77
2023/09/12 00:40:57;;;;;;;167.90;50.00;;;;;;;16.46;100.00;101436.16;5072255;28;20035;-76
2023/09/12 00:43:23;;;;;;;151.50;48.58;;;;;;;16.41;100.00;101425.06;5072823;28;20036;-75
2023/09/12 00:45:48;;;;;;;148.45;46.47;;;;;;;16.36;100.00;101427.38;5053850;28;20028;-76
2023/09/12 00:48:15;;;;;;;169.95;50.53;;;;;;;16.34;100.00;101426.72;5072558;28;20039;-76
2023/09/12 00:50:41;;;;;;;166.00;50.88;;;;;;;16.35;100.00;101429.25;5072381;28;20491;-76
2023/09/12 00:53:08;;;;;;;177.35;51.78;;;;;;;16.37;100.00;101426.41;5076630;28;20043;-75
2023/09/12 00:55:35;;;;;;;176.32;52.20;;;;;;;16.37;100.00;101426.41;5076520;28;20111;-75
2023/09/12 00:58:01;;;;;;;169.77;52.10;;;;;;;16.36;100.00;101425.56;5076382;28;20028;-76
2023/09/12 01:00:27;;;;;;;150.68;48.72;;;;;;;16.34;100.00;101432.91;5076057;28;20071;-75
2023/09/12 01:02:53;;;;;;;163.10;50.30;;;;;;;16.32;100.00;101426.88;5075826;28;20068;-76
2023/09/12 01:05:22;;;;;;;155.48;48.85;;;;;;;16.32;100.00;101423.38;5076246;28;20487;-75
2023/09/12 01:07:47;;;;;;;149.27;47.80;;;;;;;16.25;100.00;101425.84;5075896;28;20036;-75
2023/09/12 01:10:13;;;;;;;158.35;48.22;;;;;;;16.22;100.00;101432.38;5076172;28;20033;-75
2023/09/12 01:12:38;;;;;;;140.02;46.00;;;;;;;16.19;100.00;101426.50;5075827;28;20055;-76
2023/09/12 01:15:08;;;;;;;134.15;43.55;;;;;;;16.15;100.00;101430.50;5075843;28;20107;-75
2023/09/12 01:17:34;;;;;;;135.18;42.80;;;;;;;16.11;100.00;101430.00;5075504;28;20497;-76
2023/09/12 01:20:04;;;;;;;123.35;41.70;;;;;;;16.07;100.00;101430.47;5075443;28;20047;-76
2023/09/12 01:22:46;;;;;;;115.35;39.17;;;;;;;16.00;100.00;101424.91;5075855;28;20472;-75
2023/09/12 01:25:34;;;;;;;117.32;39.63;;;;;;;15.95;100.00;101421.88;5076051;28;20036;-75
2023/09/12 01:28:03;;;;;;;116.55;38.00;;;;;;;15.91;100.00;101425.88;5075392;28;20123;-75
2023/09/12 01:30:31;;;;;;;106.60;35.75;;;;;;;15.88;100.00;101421.66;5075786;28;20025;-75
2023/09/12 01:32:56;;;;;;;100.65;34.00;;;;;;;15.84;100.00;101415.78;5075324;28;20032;-75
2023/09/12 01:35:22;;;;;;;96.30;32.40;;;;;;;15.81;100.00;101412.59;5075727;28;20035;-75
2023/09/12 01:37:47;;;;;;;110.95;36.75;;;;;;;15.79;100.00;101420.75;5075195;28;20028;-75
2023/09/12 01:40:15;;;;;;;107.15;37.17;;;;;;;15.78;100.00;101415.56;5075662;28;20049;-76
2023/09/12 01:42:45;;;;;;;109.07;35.67;;;;;;;15.75;100.00;101415.84;5075188;28;20036;-77
2023/09/12 01:45:16;;;;;;;109.03;35.30;;;;;;;15.71;100.00;101412.66;5075718;28;20072;-75
2023/09/12 01:47:42;;;;;;;96.72;32.25;;;;;;;15.67;100.00;101408.59;5074997;28;20021;-77
2023/09/12 01:50:12;;;;;;;85.68;31.02;;;;;;;15.63;100.00;101412.59;5075470;28;20029;-75
2023/09/12 01:52:38;;;;;;;101.53;34.73;;;;;;;15.58;100.00;101405.03;5075399;28;20469;-75
2023/09/12 01:55:05;;;;;;;98.35;34.17;;;;;;;15.57;100.00;101403.34;5074727;28;20020;-76
2023/09/12 01:57:31;;;;;;;107.65;34.25;;;;;;;15.54;100.00;101408.19;5074785;28;20416;-75
2023/09/12 01:59:56;;;;;;;106.72;34.50;;;;;;;15.50;100.00;101405.81;5074893;28;20068;-75
2023/09/12 02:02:21;;;;;;;92.38;32.95;;;;;;;15.47;100.00;101407.97;5075142;28;20059;-75
2023/09/12 02:04:58;;;;;;;105.88;35.80;;;;;;;15.44;100.00;101403.75;5074829;28;20074;-76
2023/09/12 02:07:24;;;;;;;96.35;33.40;;;;;;;15.43;100.00;101410.13;5075100;28;20469;-76
2023/09/12 02:09:50;;;;;;;103.50;33.78;;;;;;;15.44;100.00;101402.94;5074640;28;20040;-76
2023/09/12 02:12:15;;;;;;;95.18;32.55;;;;;;;15.42;100.00;101411.13;5075081;28;20048;-75
2023/09/12 02:14:41;;;;;;;102.72;33.85;;;;;;;15.43;100.00;101409.28;5075021;28;20040;-75
2023/09/12 02:17:06;;;;;;;104.32;35.92;;;;;;;15.39;100.00;101411.44;5074120;28;20064;-76
2023/09/12 02:19:31;;;;;;;93.30;32.20;;;;;;;15.38;100.00;101409.75;5075088;28;20520;-75
2023/09/12 02:21:57;;;;;;;95.13;32.00;;;;;;;15.37;100.00;101410.75;5074157;28;20024;-75
2023/09/12 02:24:22;;;;;;;98.25;33.65;;;;;;;15.35;100.00;101410.06;5074987;28;20095;-75
2023/09/12 02:26:47;;;;;;;117.45;36.60;;;;;;;15.37;100.00;101423.31;5074277;28;20032;-76
2023/09/12 02:29:13;;;;;;;105.03;34.85;;;;;;;15.37;100.00;101426.00;5074855;28;20037;-75
2023/09/12 02:31:38;;;;;;;106.50;34.90;;;;;;;15.37;100.00;101424.16;5074360;28;20361;-75
2023/09/12 02:34:04;;;;;;;91.60;31.45;;;;;;;15.39;100.00;101413.28;5074326;28;20036;-75
2023/09/12 02:36:29;;;;;;;93.75;30.08;;;;;;;15.42;100.00;101411.13;5074718;28;20040;-75
2023/09/12 02:38:55;;;;;;;115.07;36.72;;;;;;;15.44;100.00;101411.81;5073986;28;20036;-75
2023/09/12 02:41:20;;;;;;;103.65;33.97;;;;;;;15.46;100.00;101412.47;5074177;28;20040;-75
2023/09/12 02:43:45;;;;;;;114.20;35.28;;;;;;;15.44;100.00;101411.81;5074486;28;20047;-75
2023/09/12 02:46:11;;;;;;;112.40;35.80;;;;;;;15.49;100.00;101408.66;5074353;28;20033;-75
2023/09/12 02:48:36;;;;;;;108.25;35.35;;;;;;;15.48;100.00;101409.66;5074448;28;20115;-76
2023/09/12 02:51:01;;;;;;;95.65;32.20;;;;;;;15.45;100.00;101405.47;5073961;28;20053;-75
2023/09/12 02:53:27;;;;;;;114.78;35.17;;;;;;;15.44;100.00;101405.63;5074364;28;20526;-75
2023/09/12 02:55:54;;;;;;;98.32;31.80;;;;;;;15.46;100.00;101395.56;5073500;28;20033;-76
2023/09/12 02:58:19;;;;;;;101.45;32.47;;;;;;;15.45;100.00;101396.56;5074061;28;20366;-75
2023/09/12 03:00:45;;;;;;;114.95;34.53;;;;;;;15.46;100.00;101399.06;5073172;28;20050;-76
2023/09/12 03:03:10;;;;;;;102.10;33.08;;;;;;;15.49;100.00;101395.25;5073416;28;20091;-76
2023/09/12 03:05:36;;;;;;;118.07;35.10;;;;;;;15.51;100.00;101401.31;5073770;28;20032;-76
2023/09/12 03:08:01;;;;;;;104.60;33.30;;;;;;;15.53;100.00;101401.97;5072609;28;20120;-76
2023/09/12 03:10:26;;;;;;;102.22;32.75;;;;;;;15.55;100.00;101402.66;5056389;28;20067;-75
2023/09/12 03:12:52;;;;;;;105.47;34.33;;;;;;;15.57;100.00;101398.00;5073398;28;20061;-76
2023/09/12 03:15:17;;;;;;;117.35;36.10;;;;;;;15.59;100.00;101401.34;5073182;28;20115;-76
2023/09/12 03:17:42;;;;;;;120.53;38.60;;;;;;;15.62;100.00;101389.47;5073440;28;20056;-75
2023/09/12 03:20:08;;;;;;;108.32;34.03;;;;;;;15.66;100.00;101401.56;5073166;28;20025;-76
2023/09/12 03:22:37;;;;;;;118.13;34.97;;;;;;;15.69;100.00;101393.19;5073729;28;20376;-76
2023/09/12 03:25:04;;;;;;;136.48;39.63;;;;;;;15.73;100.00;101396.41;5072960;28;20448;-76
2023/09/12 03:27:29;;;;;;;125.00;36.47;;;;;;;15.78;100.00;101396.78;5073865;28;20029;-75
2023/09/12 03:29:55;;;;;;;131.88;39.15;;;;;;;15.82;100.00;101395.47;5073404;28;20426;-77
2023/09/12 03:32:20;;;;;;;137.73;38.30;;;;;;;15.84;100.00;101396.16;5073423;28;20465;-75
2023/09/12 03:34:45;;;;;;;130.57;37.20;;;;;;;15.85;100.00;101390.63;5073225;28;20465;-76
2023/09/12 03:37:11;;;;;;;123.85;36.25;;;;;;;15.89;100.00;101391.16;5072978;28;20485;-76
2023/09/12 03:39:36;;;;;;;136.82;37.33;;;;;;;15.93;100.00;101391.66;5073332;28;20063;-75
2023/09/12 03:42:01;;;;;;;148.02;40.10;;;;;;;15.97;100.00;101384.97;5072917;28;20032;-76
2023/09/12 03:44:27;;;;;;;144.77;38.40;;;;;;;15.99;100.00;101391.88;5073597;28;20123;-76
2023/09/12 03:46:52;;;;;;;134.35;38.35;;;;;;;16.02;100.00;101390.72;5073086;28;20044;-77
2023/09/12 03:49:17;;;;;;;145.88;38.67;;;;;;;16.00;100.00;101398.06;5072562;28;20028;-77
2023/09/12 03:51:43;;;;;;;132.98;38.22;;;;;;;15.99;100.00;101391.88;5072819;28;20045;-76
2023/09/12 03:54:08;;;;;;;151.13;38.95;;;;;;;15.99;100.00;101396.41;5072786;28;20024;-75
2023/09/12 03:56:33;;;;;;;145.20;40.60;;;;;;;16.02;100.00;101396.06;5073079;28;20465;-75
2023/09/12 03:58:59;;;;;;;152.15;39.50;;;;;;;16.03;100.00;101387.88;5072724;28;20465;-75
2023/09/12 04:01:25;;;;;;;155.23;40.85;;;;;;;16.09;100.00;101388.19;5072868;28;20032;-78
2023/09/12 04:03:51;;;;;;;167.82;42.63;;;;;;;16.10;100.00;101387.22;5072929;28;20028;-75
2023/09/12 04:06:16;;;;;;;183.35;44.38;;;;;;;16.13;100.00;101393.09;5072490;28;20033;-76
2023/09/12 04:08:42;;;;;;;164.73;40.63;;;;;;;16.15;100.00;101388.41;5072939;28;20028;-75
2023/09/12 04:11:07;;;;;;;143.93;38.88;;;;;;;16.16;100.00;101384.69;5072173;28;20062;-76
2023/09/12 04:13:32;;;;;;;144.98;38.63;;;;;;;16.15;100.00;101385.72;5071266;28;20040;-75
2023/09/12 04:15:58;;;;;;;139.75;37.83;;;;;;;16.16;100.00;101391.94;5072731;28;20078;-75
2023/09/12 04:18:23;;;;;;;134.63;37.10;;;;;;;16.17;100.00;101388.25;5071869;28;20048;-75
2023/09/12 04:20:48;;;;;;;122.70;34.85;;;;;;;16.16;100.00;101386.56;5054975;28;20094;-75
2023/09/12 04:23:14;;;;;;;142.10;37.42;;;;;;;16.16;100.00;101386.56;5070955;28;20036;-78
2023/09/12 04:25:43;;;;;;;120.32;35.30;;;;;;;16.15;100.00;101383.03;5071474;28;20032;-75
2023/09/12 04:28:08;;;;;;;131.55;36.85;;;;;;;16.16;100.00;101384.69;5072259;28;20059;-75
2023/09/12 04:30:35;;;;;;;134.68;37.00;;;;;;;16.16;100.00;101387.38;5072594;28;20060;-77
2023/09/12 04:33:00;;;;;;;144.18;38.22;;;;;;;16.18;100.00;101390.78;5072604;28;20051;-76
2023/09/12 04:35:26;;;;;;;145.90;38.55;;;;;;;16.19;100.00;101383.53;5072196;28;20426;-75
2023/09/12 04:37:51;;;;;;;155.50;40.35;;;;;;;16.20;100.00;101390.59;5072602;28;20028;-75
2023/09/12 04:40:17;;;;;;;128.23;35.15;;;;;;;16.22;100.00;101396.63;5070819;28;20055;-75
2023/09/12 04:42:42;;;;;;;154.88;39.38;;;;;;;16.21;100.00;101398.50;5072462;28;20028;-75
2023/09/12 04:45:08;;;;;;;167.57;40.78;;;;;;;16.21;100.00;101389.56;5071772;28;20032;-79
2023/09/12 04:47:33;;;;;;;171.05;41.97;;;;;;;16.23;100.00;101390.28;5072236;28;20029;-78
2023/09/12 04:50:01;;;;;;;179.48;41.00;;;;;;;16.26;100.00;101389.94;5072750;28;20377;-74
2023/09/12 04:52:26;;;;;;;161.60;40.08;;;;;;;16.29;100.00;101388.78;5071957;28;20039;-78
2023/09/12 04:54:51;;;;;;;178.77;42.03;;;;;;;16.32;100.00;101393.84;5072471;28;20041;-77
2023/09/12 04:57:17;;;;;;;166.23;42.03;;;;;;;16.32;100.00;101393.84;5071725;28;20032;-77
2023/09/12 04:59:42;;;;;;;168.15;42.33;;;;;;;16.36;100.00;101396.03;5072633;28;20029;-77
2023/09/12 05:02:08;;;;;;;166.70;42.15;;;;;;;16.37;100.00;101394.16;5071899;28;20119;-78
2023/09/12 05:04:33;;;;;;;169.18;41.28;;;;;;;16.40;100.00;101391.97;5072292;28;20029;-77
2023/09/12 05:06:58;;;;;;;159.30;41.83;;;;;;;16.40;100.00;101399.22;5072249;28;20028;-77
2023/09/12 05:09:24;;;;;;;168.95;42.53;;;;;;;16.42;100.00;101397.22;5071594;28;20445;-77
2023/09/12 05:11:49;;;;;;;186.77;43.42;;;;;;;16.44;100.00;101402.44;5070976;28;20510;-77
2023/09/12 05:14:15;;;;;;;176.75;44.45;;;;;;;16.46;100.00;101408.47;5071693;28;20028;-77
2023/09/12 05:16:40;;;;;;;178.88;43.40;;;;;;;16.48;100.00;101403.75;5072281;28;20028;-77
2023/09/12 05:19:06;;;;;;;166.38;41.70;;;;;;;16.50;100.00;101407.13;5071665;28;20398;-77
2023/09/12 05:21:31;;;;;;;168.88;42.58;;;;;;;16.53;100.00;101401.44;5071441;28;20046;-78
2023/09/12 05:23:56;;;;;;;173.38;43.08;;;;;;;16.54;100.00;101403.09;5072123;28;20028;-77
2023/09/12 05:26:22;;;;;;;160.55;41.50;;;;;;;16.54;100.00;101411.16;5071666;28;20082;-77
2023/09/12 05:28:47;;;;;;;177.20;43.95;;;;;;;16.55;100.00;101407.47;5072093;28;20124;-75
2023/09/12 05:31:12;;;;;;;168.48;42.13;;;;;;;16.56;100.00;101407.31;5071659;28;20377;-76
2023/09/12 05:33:38;;;;;;;165.07;41.45;;;;;;;16.61;100.00;101405.97;5071994;28;20033;-76
2023/09/12 05:36:03;;;;;;;163.73;41.40;;;;;;;16.61;100.00;101404.13;5071845;28;20389;-75
2023/09/12 05:38:29;;;;;;;167.73;43.25;;;;;;;16.63;100.00;101409.31;5074372;28;20032;-75
2023/09/12 05:40:54;;;;;;;194.35;46.08;;;;;;;16.63;100.00;101412.88;5074327;28;20037;-76
2023/09/12 05:43:19;;;;;;;189.07;44.35;;;;;;;16.63;100.00;101412.88;5074857;28;20028;-76
2023/09/12 05:45:45;;;;;;;177.38;43.55;;;;;;;16.63;100.00;101412.88;5075608;28;20029;-75
2023/09/12 05:48:10;;;;;;;170.82;42.03;;;;;;;16.62;100.00;101408.50;5075645;28;20036;-75
2023/09/12 05:50:39;;;;;;;163.25;42.05;;;;;;;16.60;100.00;101406.97;5074875;28;20444;-75
2023/09/12 05:53:04;;;;;;;158.05;39.67;;;;;;;16.56;100.00;101410.00;5074085;28;20032;-76
2023/09/12 05:55:29;;;;;;;162.77;41.03;;;;;;;16.51;100.00;101401.59;5074834;28;20036;-76
2023/09/12 05:57:55;;;;;;;167.95;43.70;;;;;;;16.50;100.00;101399.09;5075123;28;20032;-76
2023/09/12 06:00:20;;;;;;;156.05;40.13;;;;;;;16.47;100.00;101405.63;5073737;28;20186;-76
2023/09/12 06:02:48;;;;;;;167.18;41.05;;;;;;;16.45;100.00;101412.16;5075266;28;20029;-76
2023/09/12 06:05:15;;;;;;;152.35;39.92;;;;;;;16.42;100.00;101407.97;5075188;28;20043;-76
2023/09/12 06:07:41;;;;;;;154.68;39.85;;;;;;;16.41;100.00;101408.97;5074995;28;20039;-76
2023/09/12 06:10:07;;;;;;;161.32;41.38;;;;;;;16.42;100.00;101409.78;5075072;28;20032;-76
2023/09/12 06:12:35;;;;;;;169.13;40.80;;;;;;;16.43;100.00;101415.00;5074882;28;20115;-75
2023/09/12 06:15:01;;;;;;;176.98;42.67;;;;;;;16.45;100.00;101413.00;5073647;28;20032;-75
2023/09/12 06:17:27;;;;;;;187.23;44.92;;;;;;;16.46;100.00;101405.78;5074260;28;20048;-75
2023/09/12 06:19:54;;;;;;;190.43;45.20;;;;;;;16.46;100.00;101406.59;5074907;28;20048;-76
2023/09/12 06:22:20;;;;;;;180.52;44.60;;;;;;;16.51;100.00;101411.47;5074055;28;20024;-75
2023/09/12 06:24:45;;;;;;;177.95;45.25;;;;;;;16.58;100.00;101412.50;5074988;28;20062;-75
2023/09/12 06:27:13;;;;;;;204.50;48.53;;;;;;;16.68;100.00;101410.53;5074802;28;20036;-75
2023/09/12 06:29:38;;;;;;;214.35;49.70;;;;;;;16.81;100.00;101414.56;5074320;28;20064;-76
2023/09/12 06:32:04;;;;;;;194.88;46.88;;;;;;;16.90;100.00;101417.13;5074505;28;20086;-76
2023/09/12 06:34:30;;;;;;;204.65;48.35;;;;;;;17.00;100.00;101413.44;5074037;28;20552;-75
2023/09/12 06:36:55;;;;;;;197.32;48.22;;;;;;;17.06;100.00;101420.81;5074398;28;20515;-75
2023/09/12 06:39:20;;;;;;;200.30;48.55;;;;;;;17.20;100.00;101432.78;5074162;28;20123;-75
2023/09/12 06:41:45;;;;;;;202.75;50.15;;;;;;;17.37;100.00;101436.28;5074323;28;20116;-74
2023/09/12 06:44:11;;;;;;;214.38;50.13;;;;;;;17.52;100.00;101436.44;5074586;28;20040;-75
2023/09/12 06:46:37;;;;;;;189.93;48.80;;;;;;;17.60;100.00;101431.91;5074144;28;20036;-75
2023/09/12 06:49:03;;;;;;;191.07;46.22;;;;;;;17.70;100.00;101438.94;5073573;28;20062;-75
2023/09/12 06:51:29;;;;;;;196.85;48.25;;;;;;;17.80;100.00;101432.34;5073994;28;20028;-76
2023/09/12 06:53:54;;;;;;;187.70;47.20;;;;;;;17.93;100.00;101439.91;5073013;28;20044;-75
2023/09/12 06:56:19;;;;;;;178.50;46.78;;;;;;;18.04;100.00;101440.56;5074576;28;20064;-78
2023/09/12 06:58:45;;;;;;;168.18;43.90;;;;;;;18.13;100.00;101437.66;5073880;28;20043;-77
2023/09/12 07:01:10;;;;;;;150.20;42.45;;;;;;;18.13;100.00;101443.03;5074091;28;20080;-77
2023/09/12 07:03:36;;;;;;;151.25;42.75;;;;;;;18.08;100.00;101437.34;5073507;28;20490;-77
2023/09/12 07:06:02;;;;;;;143.63;43.13;;;;;;;18.15;100.00;101445.56;5074009;28;20040;-77
2023/09/12 07:08:30;;;;;;;142.40;40.70;;;;;;;18.19;100.00;101444.19;5073488;28;20052;-77
2023/09/12 07:10:57;;;;;;;141.45;42.47;;;;;;;18.25;100.00;101443.50;5073784;28;20484;-77
2023/09/12 07:13:23;;;;;;;130.02;38.53;;;;;;;18.28;100.00;101445.00;5072579;28;20036;-77
2023/09/12 07:15:52;;;;;;;124.88;38.70;;;;;;;18.34;100.00;101452.38;5072557;28;20063;-75
2023/09/12 07:18:18;;;;;;;113.40;37.90;;;;;;;18.42;100.00;101457.75;5073841;28;20140;-77
2023/09/12 07:20:43;;;;;;;112.10;37.55;;;;;;;18.47;100.00;101452.66;5073388;28;20105;-77
2023/09/12 07:23:09;;;;;;;108.28;37.08;;;;;;;18.57;100.00;101456.97;5073622;28;20033;-77
2023/09/12 07:25:41;;;;;;;94.18;34.00;;;;;;;18.67;100.00;101463.84;5073232;28;20485;-77
2023/09/12 07:28:09;;;;;;;93.20;33.40;;;;;;;18.82;100.00;101465.75;5073997;28;20566;-77
2023/09/12 07:30:35;;;;;;;95.70;33.30;;;;;;;18.93;100.00;101461.84;5073183;28;20032;-77
2023/09/12 07:33:02;;;;;;;85.05;31.77;;;;;;;19.01;100.00;101465.31;5073539;28;20033;-77
2023/09/12 07:35:28;;;;;;;74.07;31.08;;;;;;;19.14;100.00;101472.81;5073313;28;20032;-75
2023/09/12 07:37:53;;;;;;;79.15;30.83;;;;;;;19.28;100.00;101467.66;5073665;28;20033;-75
2023/09/12 07:40:19;;;;;;;77.72;32.05;;;;;;;19.47;100.00;101471.72;5072207;28;20036;-77
2023/09/12 07:42:44;;;;;;;66.82;29.52;;;;;;;19.62;100.00;101474.44;5072903;28;20385;-77
2023/09/12 07:45:10;;;;;;;59.67;28.08;;;;;;;19.67;100.00;101480.94;5073452;28;20029;-77
2023/09/12 07:47:35;;;;;;;53.17;26.88;;;;;;;19.79;100.00;101483.25;5072887;28;20453;-78
2023/09/12 07:50:01;;;;;;;55.80;27.25;;;;;;;19.86;100.00;101484.19;5073518;28;20468;-77
2023/09/12 07:52:27;;;;;;;49.10;25.20;;;;;;;19.84;100.00;101486.22;5073273;28;20064;-76
2023/09/12 07:54:56;;;;;;;46.13;24.40;;;;;;;19.82;100.00;101475.59;5072795;28;20032;-77
2023/09/12 07:57:22;;;;;;;46.45;24.35;;;;;;;19.76;100.00;101472.78;5073256;28;20090;-78
2023/09/12 07:59:48;;;;;;;51.90;24.48;;;;;;;19.71;100.00;101474.16;5072607;28;20461;-78
2023/09/12 08:02:13;;;;;;;43.33;24.27;;;;;;;19.68;100.00;101474.53;5055159;28;20493;-77
2023/09/12 08:04:38;;;;;;;42.17;23.67;;;;;;;19.61;100.00;101468.19;5072695;28;20385;-77
2023/09/12 08:07:04;;;;;;;45.80;24.23;;;;;;;19.63;100.00;101470.69;5072582;28;20037;-77
2023/09/12 08:09:51;;;;;;;43.72;22.67;;;;;;;19.61;100.00;101484.38;5073045;28;20039;-77
2023/09/12 08:12:18;;;;;;;46.55;23.48;;;;;;;19.67;100.00;101474.72;5073120;28;20032;-78
2023/09/12 08:14:44;;;;;;;46.47;23.88;;;;;;;19.83;100.00;101476.44;5072638;28;20028;-78
2023/09/12 08:17:10;;;;;;;41.78;25.00;;;;;;;20.15;100.00;101482.50;5072891;28;20028;-78
2023/09/12 08:19:36;;;;;;;35.97;19.25;;;;;;;20.56;100.00;101476.59;5072562;28;20052;-78
2023/09/12 08:22:01;;;;;;;36.65;20.40;;;;;;;20.78;100.00;101472.09;5072442;28;20085;-77
2023/09/12 08:24:26;;;;;;;31.30;19.17;;;;;;;20.98;100.00;101472.28;5072795;28;20480;-77
2023/09/12 08:26:52;;;;;;;33.33;18.98;;;;;;;21.13;100.00;101467.66;5072298;28;20040;-78
2023/09/12 08:29:17;;;;;;;34.55;19.38;;;;;;;21.18;100.00;101474.34;5072727;28;20036;-78
2023/09/12 08:31:44;;;;;;;31.15;18.73;;;;;;;21.19;100.00;101471.44;5072256;28;20052;-77
2023/09/12 08:34:10;;;;;;;35.60;20.63;;;;;;;21.28;100.00;101472.16;5071406;28;20037;-77
2023/09/12 08:36:36;;;;;;;32.17;20.13;;;;;;;21.46;100.00;101475.22;5071987;28;20047;-77
2023/09/12 08:39:01;;;;;;;31.23;19.50;;;;;;;21.71;100.00;101474.00;5072556;28;20036;-78
2023/09/12 08:41:26;;;;;;;32.47;20.50;;;;;;;22.19;100.00;101463.22;5072586;28;20431;-78
2023/09/12 08:43:53;;;;;;;29.77;19.35;;;;;;;22.79;100.00;101459.91;5071857;28;20035;-77
2023/09/12 08:46:20;;;;;;;30.63;18.17;;;;;;;23.46;100.00;101458.13;5071017;28;20086;-76
2023/09/12 08:48:48;;;;;;;33.05;18.30;;;;;;;23.72;100.00;101454.56;5072150;28;20029;-77
2023/09/12 08:51:13;;;;;;;27.35;17.77;;;;;;;23.45;100.00;101451.00;5072511;28;20040;-78
2023/09/12 08:53:39;;;;;;;26.55;17.65;;;;;;;23.21;100.00;101450.63;5071730;28;20033;-77
2023/09/12 08:56:04;;;;;;;28.95;18.15;;;;;;;23.19;100.00;101455.41;5071132;28;20029;-77
2023/09/12 08:58:35;;;;;;;28.80;18.27;;;;;;;23.40;100.00;101458.97;5071087;28;20086;-76
2023/09/12 09:01:03;;;;;;;28.08;17.50;;;;;;;24.28;100.00;101444.16;5072054;28;20052;-76
2023/09/12 09:03:29;;;;;;;30.98;17.30;;;;;;;24.90;100.00;101444.50;5072020;28;20500;-75
2023/09/12 09:05:55;;;;;;;24.92;16.30;;;;;;;24.87;100.00;101446.78;5071956;28;20036;-75
2023/09/12 09:08:23;;;;;;;24.38;15.88;;;;;;;24.41;100.00;101451.44;5072393;28;20028;-75
2023/09/12 09:11:02;;;;;;;23.92;15.18;;;;;;;23.96;100.00;101445.94;5070499;28;20062;-76
2023/09/12 09:13:27;;;;;;;23.50;13.98;;;;;;;23.36;100.00;101446.84;5074260;28;20043;-77
2023/09/12 09:16:11;;;;;;;22.40;13.98;;;;;;;23.08;100.00;101453.28;5075758;28;20024;-74
2023/09/12 09:19:00;;;;;;;21.05;13.95;;;;;;;23.16;100.00;101452.28;5075954;28;20052;-77
2023/09/12 09:21:31;;;;;;;20.42;13.85;;;;;;;23.58;100.00;101451.00;5076006;28;20035;-74
2023/09/12 09:23:59;;;;;;;23.08;13.75;;;;;;;24.41;100.00;101454.16;5075625;28;20027;-74
2023/09/12 09:26:25;;;;;;;23.63;13.07;;;;;;;24.55;100.00;101461.19;5076097;28;20051;-74
2023/09/12 09:29:05;;;;;;;28.95;14.73;;;;;;;24.29;100.00;101457.53;5075551;28;20028;-74
2023/09/12 09:31:32;;;;;;;24.60;14.95;;;;;;;24.03;100.00;101458.47;5075974;28;20036;-74
2023/09/12 09:33:58;;;;;;;18.77;12.82;;;;;;;23.89;100.00;101467.72;5074159;28;20441;-75
2023/09/12 09:36:24;;;;;;;19.42;12.77;;;;;;;23.82;100.00;101462.25;5075885;28;20055;-74
2023/09/12 09:38:50;;;;;;;19.05;13.18;;;;;;;23.87;100.00;101467.94;5075424;28;20033;-73
2023/09/12 09:41:15;;;;;;;24.25;13.73;;;;;;;24.33;100.00;101471.53;5075880;28;20436;-74
2023/09/12 09:43:42;;;;;;;19.48;13.95;;;;;;;24.56;100.00;101472.91;5074468;28;20029;-74
2023/09/12 09:46:15;;;;;;;22.23;14.30;;;;;;;25.28;100.00;101470.78;5075658;28;20056;-74
2023/09/12 09:48:49;;;;;;;21.50;13.48;;;;;;;26.80;100.00;101471.28;5075437;28;20035;-74
2023/09/12 09:51:14;;;;;;;23.20;15.93;;;;;;;26.67;100.00;101466.81;5075633;28;20081;-75
2023/09/12 09:53:40;;;;;;;24.40;16.25;;;;;;;25.61;100.00;101458.78;5075514;28;20036;-76
2023/09/12 09:56:13;;;;;;;23.23;15.40;;;;;;;24.93;100.00;101463.09;5073787;28;20036;-75
2023/09/12 09:58:52;;;;;;;26.60;16.23;;;;;;;24.13;100.00;101466.19;5075356;28;20040;-75
2023/09/12 10:01:19;;;;;;;28.10;13.43;;;;;;;23.50;100.00;101467.53;5075391;28;20380;-75
2023/09/12 10:03:50;;;;;;;19.52;12.52;;;;;;;23.17;100.00;101464.78;5075333;28;20054;-75
2023/09/12 10:06:17;;;;;;;17.27;13.23;;;;;;;22.98;100.00;101455.56;5075132;28;20388;-76
2023/09/12 10:08:50;;;;;;;21.38;14.50;;;;;;;22.79;100.00;101458.03;5075309;28;20039;-75
2023/09/12 10:11:18;;;;;;;17.92;13.65;;;;;;;22.77;100.00;101459.31;5075390;28;20032;-76
2023/09/12 10:13:52;;;;;;;19.92;12.93;;;;;;;22.71;100.00;101458.25;5075262;28;20055;-75
2023/09/12 10:16:20;;;;;;;16.67;11.20;;;;;;;22.87;100.00;101460.56;5075275;28;20456;-75
2023/09/12 10:19:13;;;;;;;15.80;11.10;;;;;;;23.02;100.00;101462.25;5075410;28;20048;-75
2023/09/12 10:21:53;;;;;;;16.35;9.38;;;;;;;23.18;100.00;101466.47;5070791;28;20078;-75
2023/09/12 10:24:21;;;;;;;17.88;10.07;;;;;;;23.50;100.00;101459.38;5073822;28;20032;-75
2023/09/12 10:26:50;;;;;;;14.80;8.23;;;;;;;23.74;100.00;101466.03;5073729;28;20460;-75
2023/09/12 10:29:15;;;;;;;32.28;7.90;;;;;;;23.78;100.00;101466.44;5074963;28;20036;-75
2023/09/12 10:31:41;;;;;;;15.65;6.70;;;;;;;23.82;100.00;101470.41;5074975;28;20460;-75
2023/09/12 10:34:09;;;;;;;12.70;7.10;;;;;;;23.84;100.00;101459.31;5074106;28;20495;-75
2023/09/12 10:36:39;;;;;;;13.63;7.00;;;;;;;23.68;100.00;101460.63;5074783;28;20426;-75
2023/09/12 10:39:05;;;;;;;18.33;7.72;;;;;;;23.49;100.00;101452.28;5074421;28;20053;-75
2023/09/12 10:41:32;;;;;;;16.42;7.13;;;;;;;23.39;100.00;101450.00;5074569;28;20047;-75
2023/09/12 10:43:59;;;;;;;17.15;7.90;;;;;;;23.26;100.00;101454.56;5074276;28;20032;-75
2023/09/12 10:46:24;;;;;;;17.42;7.00;;;;;;;23.24;100.00;101447.50;5074544;28;20043;-75
2023/09/12 10:48:50;;;;;;;14.15;6.75;;;;;;;23.15;100.00;101440.56;5073453;28;20028;-75
2023/09/12 10:51:17;;;;;;;12.73;6.68;;;;;;;23.11;100.00;101441.19;5074320;28;20029;-76
2023/09/12 10:53:48;;;;;;;15.15;6.63;;;;;;;22.99;100.00;101440.94;5073193;28;20468;-76
2023/09/12 10:56:19;;;;;;;14.38;6.40;;;;;;;22.91;100.00;101449.31;5074019;28;20162;-75